ADDS METAR Data INFO
IDs: Format: Raw Decoded Include TAF

Data at: 0857 UTC 19 Jun 2018

KSLB 190855Z AUTO 00000KT 10SM OVC049 20/19 A2993 RMK AO2
KSLB 190835Z AUTO 16008KT 10SM OVC055 20/19 A2993 RMK AO2
KSLB 190815Z AUTO 16006G12KT 10SM BKN055 BKN070 OVC075 20/19 A2993 RMK AO2
KSLB 190755Z AUTO 17010KT 10SM BKN055 BKN065 20/19 A2994 RMK AO2
KSLB 190735Z AUTO 16007KT 10SM BKN060 BKN075 20/20 A2994 RMK AO2
KSLB 190715Z AUTO 25003KT 10SM FEW060 SCT075 20/20 A2995 RMK AO2
KSLB 190655Z AUTO 00000KT 6SM -RA FEW050 FEW060 20/20 A2993 RMK AO2 P0001
KSLB 190635Z AUTO 15006KT 6SM -RA FEW049 FEW055 FEW070 20/20 A2992 RMK AO2
KSLB 190615Z AUTO 22006KT 10SM FEW055 SCT065 SCT100 20/20 A2994 RMK AO2
KSLB 190555Z AUTO 26006G12KT 10SM BKN060 BKN100 20/20 A2996 RMK AO2
KSLB 190535Z AUTO 27006KT 10SM BKN060 BKN075 OVC095 20/20 A2996 RMK AO2
KSLB 190515Z AUTO 14004KT BKN095 BKN120 21/19 A2993 RMK AO2
KSLB 190455Z AUTO 20003KT 10SM FEW110 21/20 A2995 RMK AO2
KSLB 190435Z AUTO 16004KT 10SM CLR 21/20 A2994 RMK AO2
KSLB 190415Z AUTO 16006KT 10SM CLR 21/20 A2994 RMK AO2
KSLB 190355Z AUTO 16006KT 10SM CLR 21/20 A2994 RMK AO2
KSLB 190335Z AUTO 18006KT 10SM CLR 21/20 A2994 RMK AO2
KSLB 190235Z AUTO 13007KT 10SM CLR 21/21 A2993 RMK AO2
KSLB 190215Z AUTO 12006KT 4SM -RA FEW046 FEW050 21/21 A2995 RMK AO2
KSLB 190155Z AUTO 19007KT 5SM BR SCT045 BKN050 BKN080 22/21 A2999 RMK AO2 P0003
KSLB 190135Z AUTO 16008KT 7SM -RA FEW005 FEW015 BKN050 22/21 A2999 RMK AO2
KSLB 190115Z AUTO 17012KT 4SM -RA SCT005 BKN017 BKN032 23/23 A2998 RMK AO2
KSLB 190055Z AUTO 15010KT 4SM BR FEW018 FEW060 23/23 A2998 RMK AO2 P0001
KSLB 190035Z AUTO 09006KT 8SM CLR 23/23 A2996 RMK AO2
KSLB 190015Z AUTO 07007G13KT 9SM -DZ CLR 23/23 A2992 RMK AO2
KSLB 182355Z AUTO 08008G14KT 10SM CLR 23/23 A2992 RMK AO2 P0007
KSLB 182335Z AUTO 09012KT 8SM RA CLR 23/23 A2993 RMK AO2
KSLB 182315Z AUTO 09015KT 2SM RA FEW029 FEW035 24/23 A2992 RMK AO2
KSLB 182255Z AUTO 06007KT 3SM -RA FEW024 SCT032 BKN039 24/23 A2993 RMK AO2 P0004
KSLB 182235Z AUTO 08009KT 6SM BR FEW020 FEW024 BKN033 24/23 A2993 RMK AO2
KSLB 182215Z AUTO 08010KT 10SM SCT020 OVC032 26/22 A2992 RMK AO2
KSLB 182155Z AUTO 07011KT 10SM FEW018 BKN032 26/22 A2991 RMK AO2
KSLB 182135Z AUTO 07011KT 10SM SCT033 26/23 A2992 RMK AO2
KSLB 182115Z AUTO 06010KT 10SM CLR 26/22 A2992 RMK AO2
KSLB 182055Z AUTO 06012KT 10SM CLR 27/23 A2991 RMK AO2
KSLB 182035Z AUTO 06012G18KT 10SM CLR 26/23 A2993 RMK AO2
KSLB 182015Z AUTO 06011KT 10SM CLR 27/23 A2994 RMK AO2
KSLB 181955Z AUTO 05015KT 10SM 26/23 A2994 RMK AO2
KSLB 181935Z AUTO 05012KT 10SM 26/23 A2995 RMK AO2
KSLB 181915Z AUTO 05014KT 10SM 25/23 A2995 RMK AO2
KSLB 181855Z AUTO 04012KT 2 1/2SM -RA FEW013 24/23 A2995 RMK AO2 P0006
KSLB 181835Z AUTO 03010G16KT 4SM +RA SCT013 SCT031 BKN046 24/22 A2996 RMK AO2
KSLB 181815Z AUTO 03011KT 10SM SCT032 SCT038 BKN080 26/22 A2996 RMK AO2
KSLB 181755Z AUTO 04006KT 10SM FEW025 BKN031 BKN037 27/22 A2996 RMK AO2
KSLB 181735Z AUTO 03007KT 10SM BKN024 BKN030 27/23 A2996 RMK AO2
KSLB 181715Z AUTO 00000KT 10SM BKN022 BKN027 27/22 A2996 RMK AO2
KSLB 181655Z AUTO VRB04KT 10SM SCT021 SCT027 27/22 A2996 RMK AO2
KSLB 181635Z AUTO 09004KT 10SM SCT019 27/22 A2996 RMK AO2
KSLB 181615Z AUTO 10007KT 10SM FEW015 26/22 A2996 RMK AO2
KSLB 181555Z AUTO VRB05KT 10SM 25/22 A2996 RMK AO2
KSLB 181535Z AUTO 12006KT 10SM CLR 25/22 A2996 RMK AO2
KSLB 181515Z AUTO 11007KT 10SM 25/22 A2996 RMK AO2
KSLB 181455Z AUTO 10007KT 10SM 24/22 A2996 RMK AO2
KSLB 181435Z AUTO 11006KT 10SM 24/21 A2996 RMK AO2
KSLB 181415Z AUTO 11005KT 10SM 24/21 A2997 RMK AO2
KSLB 181355Z AUTO 11006KT 10SM 23/21 A2997 RMK AO2
KSLB 181335Z AUTO 11006KT 10SM CLR 23/21 A2996 RMK AO2
KSLB 181315Z AUTO 13007KT 10SM CLR 22/21 A2996 RMK AO2
KSLB 181255Z AUTO 13007KT 10SM FEW090 22/21 A2995 RMK AO2
KSLB 181235Z AUTO 12007KT 10SM FEW100 21/21 A2994 RMK AO2
KSLB 181215Z AUTO 11005KT 10SM CLR 21/21 A2995 RMK AO2
KSLB 181155Z AUTO 11007KT 9SM CLR 21/21 A2995 RMK AO2
KSLB 181135Z AUTO 12005KT 8SM FEW027 FEW060 SCT090 21/21 A2995 RMK AO2
KSLB 181115Z AUTO 10005KT 10SM FEW019 BKN060 BKN070 21/21 A2995 RMK AO2
KSLB 181055Z AUTO 08004KT 10SM FEW028 SCT065 OVC090 21/21 A2995 RMK AO2
KSLB 181035Z AUTO 04005KT 10SM BKN027 BKN050 OVC100 21/21 A2995 RMK AO2
KSLB 181015Z AUTO 35006KT 10SM SCT025 BKN030 OVC049 21/21 A2996 RMK AO2
KSLB 180955Z AUTO 04005KT 10SM BKN050 OVC060 21/21 A2994 RMK AO2
KSLB 180935Z AUTO 04005KT 9SM FEW015 SCT032 BKN055 21/20 A2994 RMK AO2
KSLB 180915Z AUTO 04004KT 7SM -RA SCT030 BKN039 BKN047 21/20 A2993 RMK AO2
KSLB 180855Z AUTO 00000G10KT 10SM FEW030 BKN040 OVC046 22/20 A2993 RMK AO2
KSLB 180835Z AUTO 02004KT 10SM BKN043 BKN095 OVC110 22/20 A2993 RMK AO2
KSLB 180815Z AUTO 02004KT 10SM SCT046 OVC090 22/20 A2992 RMK AO2
KSLB 180755Z AUTO 15005KT 10SM FEW036 SCT080 BKN090 22/20 A2992 RMK AO2
KSLB 180735Z AUTO 14005KT 10SM CLR 21/20 A2992 RMK AO2
KSLB 180715Z AUTO 04004KT 10SM FEW080 SCT110 21/20 A2992 RMK AO2
KSLB 180655Z AUTO VRB03KT 10SM BKN080 BKN120 21/20 A2992 RMK AO2
KSLB 180635Z AUTO 01006KT 10SM FEW075 SCT100 SCT120 22/20 A2992 RMK AO2
KSLB 180615Z AUTO 35006KT 10SM FEW075 BKN100 BKN120 22/20 A2992 RMK AO2
KSLB 180555Z AUTO 36009KT 10SM SCT040 SCT055 BKN110 22/20 A2992 RMK AO2
KSLB 180535Z AUTO 33013KT 10SM SCT032 BKN040 OVC060 22/20 A2993 RMK AO2
KSLB 180515Z AUTO 34012G25KT 10SM FEW025 SCT036 BKN060 24/20 A2992 RMK AO2
KSLB 180455Z AUTO 29012KT 10SM FEW070 SCT080 OVC100 27/21 A2990 RMK AO2
KSLB 180435Z AUTO 19008KT 10SM BKN070 OVC095 26/22 A2987 RMK AO2
KSLB 180415Z AUTO 18008KT 10SM BKN065 26/22 A2987 RMK AO2
KSLB 180355Z AUTO 17007KT 10SM SCT070 25/22 A2988 RMK AO2
KSLB 180335Z AUTO 16007KT 10SM BKN070 25/22 A2987 RMK AO2
KSLB 180315Z AUTO 16005KT 10SM FEW070 25/22 A2987 RMK AO2
KSLB 180255Z AUTO 16005KT 10SM SCT070 25/22 A2986 RMK AO2
KSLB 180235Z AUTO 16005KT 10SM SCT070 26/22 A2986 RMK AO2
KSLB 180215Z AUTO 15006KT 10SM BKN070 26/21 A2985 RMK AO2
KSLB 180155Z AUTO 16007KT 10SM BKN065 26/21 A2984 RMK AO2
KSLB 180135Z AUTO 18007KT 10SM BKN060 27/21 A2984 RMK AO2
KSLB 180115Z AUTO 19007KT 10SM SCT060 27/21 A2985 RMK AO2
KSLB 180055Z AUTO 19007KT 10SM CLR 27/21 A2985 RMK AO2
KSLB 180035Z AUTO 19008KT 10SM CLR 28/21 A2985 RMK AO2
KSLB 180015Z AUTO 20010G17KT 10SM CLR 28/20 A2986 RMK AO2
KSLB 172355Z AUTO 21012KT 10SM CLR 27/20 A2986 RMK AO2
KSLB 172335Z AUTO 19011G18KT 10SM CLR 27/20 A2986 RMK AO2
KSLB 172315Z AUTO 19014G22KT 10SM CLR 29/21 A2986 RMK AO2
KSLB 172255Z AUTO 19015KT 10SM CLR 30/21 A2986 RMK AO2
KSLB 172235Z AUTO 19009G17KT 10SM CLR 30/21 A2987 RMK AO2
KSLB 172215Z AUTO 18010KT 10SM CLR 30/22 A2987 RMK AO2
KSLB 172155Z AUTO 19011KT 10SM CLR 29/20 A2987 RMK AO2
KSLB 172135Z AUTO 20014KT 10SM CLR 30/21 A2987 RMK AO2
KSLB 172115Z AUTO 22007G14KT 10SM 30/20 A2987 RMK AO2